Ergebnisliste vom: 04.03.2017 - Radebeuler Wintercross2017 - 5,8 km

weitere Ergebnisse >>

Platz Pl.m Pl.w Stnr. Name,Vorname Verein GJ AK Akm Akw Endzeit Rückst.
1 1   299 Koritz, Tim DSC 1898 99 mU20 1   0:20:51 0:00:00
2 2   275 Sperling, Friedolin USV TU Dresden 1 mU18 1   0:23:20 0:02:29
3 3   297 Hlawenka, Konrad DSC 1898 97 mVS 1   0:23:39 0:02:48
4 4   276 Tacke, Jeremias DSC 1898 1 mU18 2   0:23:44 0:02:53
5   1 227 Ender, Felicitas Dresdner SC 1898   wU18   1 0:24:13 0:03:22
6 5   120 Rühle, Nico SC Riesa   mU18 3   0:24:34 0:03:43
7 6   202 Zöllner, Richard SG Motor Freital 98 mU20 2   0:24:40 0:03:49
8 7   76 Brandt, Luca SV Chemie Nünchritz 1 mU18 4   0:24:43 0:03:52
9 8   181 Kahl, Robert Freiberger Polizeisportverein   mU18 5   0:24:48 0:03:57
10   2 3 Rose, Corinna TSG KW Boxberg 75 W40   1 0:24:49 0:03:58
11 9   38 Lorke-Philipp, Steffen RC 1898 Radeberg 56 M60 1   0:25:01 0:04:10
12 10   119 Böhme, Benjamin Dresden   mU18 6   0:25:20 0:04:29
13   3 228 Hönicke, Jennifer SSV Planeta Radebeul 99 wU20   1 0:25:33 0:04:42
14   4 175 Grismajer, Sonnhild HSV TU Dresden-OL 81 W35   1 0:25:53 0:05:02
15   5 346 Kromp, Karen Dresden 81 W35   2 0:25:58 0:05:07
16   6 103 Marx, Christin TSV Dresden 64 W50+   1 0:26:02 0:05:11
17 11   379 Kutschka von Rothenfels, Dominic Oberwartha   mU18 7   0:26:26 0:05:35
18 12   14 Wernicke, Richard Lauftreff OS Weinböhla 1 mU18 8   0:26:28 0:05:37
19   7 97 Lehmann, Birgit BSV Chemie Radebeul 64 W50+   2 0:26:32 0:05:41
20   8 229 Hönicke, Josephine SSV Planeta Radebeul 99 wU20   2 0:26:45 0:05:54
21   9 82 Lenzner, Kathrin Dresden 96 WHK   1 0:26:46 0:05:55
22   10 362 Laveatz, Doreen DSC 1898 79 W35   3 0:26:53 0:06:02
23   11 39 Obst, Ulrike Citylauf-Verein Dresden 86 W30   1 0:27:02 0:06:11
24   12 338 Münch, Kristin SV Elbland Coswig-Meissen 84 W30   2 0:27:23 0:06:32
25   13 290 Horn, Kathleen Triathlon Verein Dresden 68 W45   1 0:27:28 0:06:37
26   14 140 Hänsel, Heike VfL Dresden-Bühlau 64 W50+   3 0:28:02 0:07:11
27 13   42 Heyer, Ulrich Chemnitz 53 M60 2   0:28:06 0:07:15
28   15 333 Wegner-Drichelt, Conni Meißen 74 W40   2 0:28:10 0:07:19
29 14   5 Kaubisch, Daniel Hirschfelder Läufer TEA 90 mVS 2   0:28:14 0:07:23
30 15   40 Kuhnert, Klaus TSV Dresden 55 M60 3   0:28:23 0:07:32
31 16   349 Karger, Sylvio Coswig 63 mVS 3   0:28:39 0:07:48
32 17   201 Wohsmann, Benjamin SG Motor Freital 98 mU20 3   0:28:42 0:07:51
33   16 238 Helas, Marina Citylauf-Verein Dresden 85 W30   3 0:28:43 0:07:52
34   17 178 Thümmler, Ronja Freiberger Polizeisportverein 98 wU20   3 0:28:46 0:07:55
35 18   231 Gamer, Sebastian SSV Planeta Radebeul 99 mU20 4   0:28:49 0:07:58
36 19   351 Kleider, Bernd TSV Dresden 57 M60 4   0:29:13 0:08:22
37   18 335 Preußner, Kristina Lauffreunde Nüne 74 W40   3 0:29:44 0:08:53
38 20   16 Winter, Jürgen LG TUS Weinböhla 48 M65 1   0:29:45 0:08:54
39 21   133 Mizera, Bernd Team Endurance Radebeul 52 M65 2   0:29:48 0:08:57
40   19 41 Heyer, Ina Chemnitz 80 W35   4 0:29:54 0:09:03
41 22   86 Trodler, Jan Dresdner SC 1898 2 mU18 9   0:30:04 0:09:13
42 23   85 Trodler, Marc TSV Theegarten Pactec   mU18 10   0:30:08 0:09:17
43 24   317 Behrisch, Siegmar Radeburg 53 M60 5   0:30:13 0:09:22
44   20 165 Richter, Silke Citylauf-Verein Dresden 80 W35   5 0:30:47 0:09:56
45   21 324 Lehmann, Anne-Kathrin Meißen 76 W40   4 0:31:10 0:10:19
46 25   339 Schliwa, Alexander Team Tempus   mU18 11   0:31:13 0:10:22
47   22 252 Jurisch, Jacqueline Radebeul 69 W45   2 0:31:29 0:10:38
48 26   280 Schmidt, Hans-Georg TSV Dresden 38 M75 1   0:31:33 0:10:42
49   23 383 Schwäbe, Svea Rasentraktor Trogen 91 WHK   2 0:31:36 0:10:45
50   24 75 Blaas, Aline SV Chemie Nünchritz 97 WHK   3 0:31:40 0:10:49
51   25 84 Trodler, Ina Citylauf-Verein Dresden 76 W40   5 0:31:47 0:10:56
52   26 43 Baars, Ulrike WKF Bergfried 91 65 W50+   4 0:31:57 0:11:06
53   27 240 Krämer, Ann-Kathrin SSV Planeta Radebeul   wU18   2 0:32:00 0:11:09
54 27   9 List, Hans-Joachim Ruhland 49 M65 3   0:32:06 0:11:15
55   28 157 Kaiber-Paul, Sabine Dresden 70 W45   3 0:32:08 0:11:17
56   29 112 Werdin, Susann USV TU Dresden 94 WHK   4 0:32:12 0:11:21
57   30 404 Berge, Anett Riesa 64 W50+   5 0:32:13 0:11:22
58   31 92 Hofmann, Katrin TSV Dresden 67 W50+   6 0:32:14 0:11:23
59   32 77 Irmscher, Antje Riesa 77 W40   6 0:32:22 0:11:31
60 28   34 Senf, Dietmar Großbothen 51 M65 4   0:32:31 0:11:40
61 29   20 Weichelt, Dieter Dresdner LT Linde 79 53 M60 6   0:32:34 0:11:43
62 30   94 Petras, Laszlo Dresden Marathon 55 M60 7   0:32:44 0:11:53
63   33 200 Feierle, Katharina SG Motor Freital 99 wU20   4 0:32:48 0:11:57
64   34 88 Primus, Beate Citylauf-Verein Dresden 75 W40   7 0:33:01 0:12:10
65   35 372 Gaber, Annette Dresden 71 W45   4 0:33:07 0:12:16
66   36 167 Böhme, Birgit Dresden 64 W50+   7 0:33:08 0:12:17
67 31   232 Hemmersbach, Erik SSV Planeta Radebeul   mU18 12   0:33:17 0:12:26
67 31   292 Sebald, Dr., Wolfgang SKL Dresden Niedersedlitz 43 M70 1   0:33:17 0:12:26
69   37 385 Philipp-Wohs, Peggy TuS Coswig 1920 74 W40   8 0:33:21 0:12:30
70 33   392 Hänel, Bernd Dresden 42 M75 2   0:33:28 0:12:37
71 34   132 Loose, Manfred VfL Dresden-Bühlau 47 M70 2   0:33:29 0:12:38
72 35   371 Böhm, Jochen Dresden 53 M60 8   0:33:32 0:12:41
73 36   256 Grafe, Bernd LT Linde 79 Dresden 44 M70 3   0:34:11 0:13:20
74   38 318 Hendricks-Frenkel, Lelia Friedewald 78 W35   6 0:34:33 0:13:42
75   39 152 Bähr, Sylvia LSV Pirna 67 W50+   8 0:34:48 0:13:57
76   40 141 Schneider, Franziska Dresden 82 W35   7 0:34:51 0:14:00
77 37   352 Schütze, Wolfgang Skiklub Niedersedlitz 42 M75 3   0:34:53 0:14:02
78   41 230 Kleinert, Lisa SSV Planeta Radebeul 1 wU18   3 0:34:54 0:14:03
79   42 376 Hilse, Yvette Peritz 67 W50+   9 0:34:55 0:14:04
80   43 159 Saure, Katrin Dresden 75 W40   9 0:34:58 0:14:07
81 38   46 Meier, Friedhard Niederau 53 M60 9   0:35:01 0:14:10
82 39   307 Lehmkuhle, Hans-Jürgen SV Motor Großenhain 51 M65 5   0:35:17 0:14:26
83 40   344 Eisemuth, Sandro SV Lampertswalde 81 mVS 4   0:35:19 0:14:28
84   44 22 Eger, Isabel Pulsschlag Neuhausen 86 W30   4 0:35:27 0:14:36
85 41   124 Oeser, Konrad Friedewald 48 M65 6   0:35:30 0:14:39
86 42   81 Dr. Ewers, Dietrich Dresden Marathon 39 M75 4   0:35:32 0:14:41
87 43   400 Nestler, Peter Großenhain 49 M65 7   0:35:36 0:14:45
88 44   319 Oettmeier, Joachim SG Canitz 44 M70 4   0:35:56 0:15:05
89 45   393 Müller, Siegfried TV Dresden-Blasewitz 38 M75 5   0:35:59 0:15:08
90   45 29 Bauer, Ivette Dresden 72 W45   5 0:36:10 0:15:19
91   46 370 Scheicher-Nebe, Katrin VfL Dresden-Bühlau 65 W50+   10 0:36:15 0:15:24
92   47 121 Rühle, Linda Lichtensee 97 WHK   5 0:36:20 0:15:29
93 46   123 Dr. Fabian, Lutz Dresden 41 M75 6   0:36:53 0:16:02
94   48 369 Feder, Anja VLH 81 W35   8 0:37:17 0:16:26
95   49 386 Wohs, Paulina SV Elbland Coswig-Meißen   wU18   4 0:37:19 0:16:28
96   50 377 Thümmler, Katrin GMRLV Freiberg 65 W50+   11 0:37:25 0:16:34
97 47   358 Zosel, Armin TSV 1862 Radeburg 34 M80+ 1   0:37:29 0:16:38
98   51 311 Sandig, Rebecca Weinböhla 99 wU20   5 0:38:05 0:17:14
99 48   348 Fischer, Gerd Weinböhla 67 mVS 5   0:38:07 0:17:16
100   52 287 Harig, Birgit Löthain 72 W45   6 0:39:22 0:18:31
101   53 381 Kutschka von Rothenfels, Ines Oberwartha 77 W40   10 0:39:45 0:18:54
102 49   62 Tschiersch, Wolfgang VfL Dresden-Bühlau 40 M75 7   0:40:01 0:19:10
103   54 24 Jiranek, Annabess Heidenau 75 W40   11 0:40:17 0:19:26
104   55 329 Thieme, Annett Ebersbach 77 W40   12 0:40:31 0:19:40
105   56 356 Wittek, Andrea Dresden 65 W50+   12 0:40:42 0:19:51
106   57 401 Mai, Anne SV Elbland Coswig Meißen 88 WHK   6 0:40:44 0:19:53
107   58 101 Jurowiec, Manuela Citylauf-Verein Dresden 73 W40   13 0:40:56 0:20:05
108 50   161 Schindler, Hartmut OSC Löbau 45 M70 5   0:42:25 0:21:34
109 51   380 Heinrich, Dietmar SV Elbland Coswig-Meißen 47 M70 6   0:42:58 0:22:07
110 52   308 Malsch, Bernhard Meißen 37 M80+ 2   0:43:16 0:22:25
111 53   45 Lehmann, Manfred Dresden 38 M75 8   0:43:45 0:22:54
112 54   314 Schildt, Jürgen TuS Coswig 1920 37 M80+ 3   0:43:51 0:23:00
113 55   162 Zosel, Hans OSC Löbau 39 M75 9   0:44:53 0:24:02
114 56   125 Horn, Heiko Diera-Zehren 61 mVS 6   0:50:10 0:29:19
115 57   323 Jentsch, Werner Riesa 43 M70 7   1:04:42 0:43:51
(c) 1990-2012 Blue Wonder Sport Promotion - Andreas Burow - Zeitnahme & Auswertung - www.Triathlon-Service.de